sensor_id;sensor_type;location;lat;lon;timestamp;P1;durP1;ratioP1;P2;durP2;ratioP2
51614;SDS011;37695;52.960;6.188;2023-09-30T00:00:56;14.38;;;4.22;;
51614;SDS011;37695;52.960;6.188;2023-09-30T00:03:22;20.25;;;3.78;;
51614;SDS011;37695;52.960;6.188;2023-09-30T00:05:48;13.13;;;4.43;;
51614;SDS011;37695;52.960;6.188;2023-09-30T00:08:14;13.43;;;3.72;;
51614;SDS011;37695;52.960;6.188;2023-09-30T00:10:40;14.40;;;4.10;;
51614;SDS011;37695;52.960;6.188;2023-09-30T00:13:05;13.00;;;4.47;;
51614;SDS011;37695;52.960;6.188;2023-09-30T00:15:32;10.85;;;3.97;;
51614;SDS011;37695;52.960;6.188;2023-09-30T00:17:58;9.68;;;3.85;;
51614;SDS011;37695;52.960;6.188;2023-09-30T00:20:23;9.75;;;3.60;;
51614;SDS011;37695;52.960;6.188;2023-09-30T00:22:49;9.90;;;3.28;;
51614;SDS011;37695;52.960;6.188;2023-09-30T00:25:15;11.98;;;3.65;;
51614;SDS011;37695;52.960;6.188;2023-09-30T00:27:41;14.63;;;4.00;;
51614;SDS011;37695;52.960;6.188;2023-09-30T00:30:06;13.38;;;4.05;;
51614;SDS011;37695;52.960;6.188;2023-09-30T00:32:32;11.98;;;3.58;;
51614;SDS011;37695;52.960;6.188;2023-09-30T00:34:58;13.45;;;3.35;;
51614;SDS011;37695;52.960;6.188;2023-09-30T00:37:26;10.93;;;3.70;;
51614;SDS011;37695;52.960;6.188;2023-09-30T00:39:53;8.40;;;3.45;;
51614;SDS011;37695;52.960;6.188;2023-09-30T00:42:18;11.30;;;3.53;;
51614;SDS011;37695;52.960;6.188;2023-09-30T00:44:46;12.57;;;3.80;;
51614;SDS011;37695;52.960;6.188;2023-09-30T00:47:12;13.15;;;3.60;;
51614;SDS011;37695;52.960;6.188;2023-09-30T00:49:41;15.05;;;3.92;;
51614;SDS011;37695;52.960;6.188;2023-09-30T00:52:09;12.73;;;3.65;;
51614;SDS011;37695;52.960;6.188;2023-09-30T00:54:35;9.52;;;3.40;;
51614;SDS011;37695;52.960;6.188;2023-09-30T00:57:03;11.85;;;3.50;;
51614;SDS011;37695;52.960;6.188;2023-09-30T00:59:29;13.82;;;4.30;;
51614;SDS011;37695;52.960;6.188;2023-09-30T01:01:57;12.98;;;3.67;;
51614;SDS011;37695;52.960;6.188;2023-09-30T01:04:24;9.90;;;3.63;;
51614;SDS011;37695;52.960;6.188;2023-09-30T01:06:51;9.73;;;3.25;;
51614;SDS011;37695;52.960;6.188;2023-09-30T01:09:17;11.45;;;3.60;;
51614;SDS011;37695;52.960;6.188;2023-09-30T01:11:42;10.73;;;3.58;;
51614;SDS011;37695;52.960;6.188;2023-09-30T01:16:54;12.85;;;3.65;;
51614;SDS011;37695;52.960;6.188;2023-09-30T01:19:20;9.18;;;3.40;;
51614;SDS011;37695;52.960;6.188;2023-09-30T01:21:45;10.68;;;3.53;;
51614;SDS011;37695;52.960;6.188;2023-09-30T01:24:16;13.23;;;3.55;;
51614;SDS011;37695;52.960;6.188;2023-09-30T01:26:42;13.27;;;3.78;;
51614;SDS011;37695;52.960;6.188;2023-09-30T01:29:08;11.82;;;3.60;;
51614;SDS011;37695;52.960;6.188;2023-09-30T01:31:37;10.45;;;3.55;;
51614;SDS011;37695;52.960;6.188;2023-09-30T01:34:03;12.10;;;3.58;;
51614;SDS011;37695;52.960;6.188;2023-09-30T01:36:29;12.05;;;3.65;;
51614;SDS011;37695;52.960;6.188;2023-09-30T01:38:55;11.68;;;3.47;;
51614;SDS011;37695;52.960;6.188;2023-09-30T01:41:20;8.85;;;3.38;;
51614;SDS011;37695;52.960;6.188;2023-09-30T01:43:46;10.80;;;3.75;;
51614;SDS011;37695;52.960;6.188;2023-09-30T01:46:12;13.32;;;3.67;;
51614;SDS011;37695;52.960;6.188;2023-09-30T01:48:37;10.30;;;3.47;;
51614;SDS011;37695;52.960;6.188;2023-09-30T01:51:03;7.70;;;3.13;;
51614;SDS011;37695;52.960;6.188;2023-09-30T01:53:29;13.27;;;3.88;;
51614;SDS011;37695;52.960;6.188;2023-09-30T01:55:54;9.32;;;3.30;;
51614;SDS011;37695;52.960;6.188;2023-09-30T01:58:20;15.00;;;3.65;;
51614;SDS011;37695;52.960;6.188;2023-09-30T02:00:46;11.13;;;3.55;;
51614;SDS011;37695;52.960;6.188;2023-09-30T02:03:11;13.27;;;4.15;;
51614;SDS011;37695;52.960;6.188;2023-09-30T02:05:38;10.75;;;3.53;;
51614;SDS011;37695;52.960;6.188;2023-09-30T02:08:04;13.18;;;4.20;;
51614;SDS011;37695;52.960;6.188;2023-09-30T02:10:31;7.65;;;3.58;;
51614;SDS011;37695;52.960;6.188;2023-09-30T02:12:58;12.65;;;3.10;;
51614;SDS011;37695;52.960;6.188;2023-09-30T02:15:24;13.82;;;4.10;;
51614;SDS011;37695;52.960;6.188;2023-09-30T02:17:50;15.63;;;4.05;;
51614;SDS011;37695;52.960;6.188;2023-09-30T02:20:17;8.52;;;3.63;;
51614;SDS011;37695;52.960;6.188;2023-09-30T02:22:45;15.93;;;4.40;;
51614;SDS011;37695;52.960;6.188;2023-09-30T02:25:11;9.90;;;4.10;;
51614;SDS011;37695;52.960;6.188;2023-09-30T02:27:38;11.23;;;3.97;;
51614;SDS011;37695;52.960;6.188;2023-09-30T02:30:06;13.60;;;4.10;;
51614;SDS011;37695;52.960;6.188;2023-09-30T02:32:32;10.82;;;4.53;;
51614;SDS011;37695;52.960;6.188;2023-09-30T02:34:58;13.73;;;4.78;;
51614;SDS011;37695;52.960;6.188;2023-09-30T02:37:24;12.55;;;4.38;;
51614;SDS011;37695;52.960;6.188;2023-09-30T02:39:50;15.75;;;4.63;;
51614;SDS011;37695;52.960;6.188;2023-09-30T02:42:16;13.18;;;5.10;;
51614;SDS011;37695;52.960;6.188;2023-09-30T02:44:41;15.70;;;5.10;;
51614;SDS011;37695;52.960;6.188;2023-09-30T02:47:07;11.60;;;5.03;;
51614;SDS011;37695;52.960;6.188;2023-09-30T02:49:33;14.10;;;4.65;;
51614;SDS011;37695;52.960;6.188;2023-09-30T02:51:59;14.45;;;5.03;;
51614;SDS011;37695;52.960;6.188;2023-09-30T02:54:25;15.25;;;5.10;;
51614;SDS011;37695;52.960;6.188;2023-09-30T02:56:51;15.80;;;5.40;;
51614;SDS011;37695;52.960;6.188;2023-09-30T02:59:17;14.30;;;5.30;;
51614;SDS011;37695;52.960;6.188;2023-09-30T03:01:43;16.40;;;6.05;;
51614;SDS011;37695;52.960;6.188;2023-09-30T03:04:09;16.05;;;5.10;;
51614;SDS011;37695;52.960;6.188;2023-09-30T03:06:37;15.25;;;5.13;;
51614;SDS011;37695;52.960;6.188;2023-09-30T03:09:03;10.00;;;5.20;;
51614;SDS011;37695;52.960;6.188;2023-09-30T03:11:30;10.20;;;5.07;;
51614;SDS011;37695;52.960;6.188;2023-09-30T03:13:56;11.90;;;4.97;;
51614;SDS011;37695;52.960;6.188;2023-09-30T03:16:22;11.55;;;5.07;;
51614;SDS011;37695;52.960;6.188;2023-09-30T03:18:49;11.80;;;5.45;;
51614;SDS011;37695;52.960;6.188;2023-09-30T03:21:15;13.05;;;5.90;;
51614;SDS011;37695;52.960;6.188;2023-09-30T03:23:41;10.88;;;5.05;;
51614;SDS011;37695;52.960;6.188;2023-09-30T03:26:07;15.68;;;5.57;;
51614;SDS011;37695;52.960;6.188;2023-09-30T03:28:35;12.57;;;5.00;;
51614;SDS011;37695;52.960;6.188;2023-09-30T03:31:02;17.08;;;6.47;;
51614;SDS011;37695;52.960;6.188;2023-09-30T03:33:30;12.30;;;5.30;;
51614;SDS011;37695;52.960;6.188;2023-09-30T03:35:56;11.30;;;5.38;;
51614;SDS011;37695;52.960;6.188;2023-09-30T03:38:23;11.55;;;5.72;;
51614;SDS011;37695;52.960;6.188;2023-09-30T03:40:48;13.80;;;5.15;;
51614;SDS011;37695;52.960;6.188;2023-09-30T03:43:15;16.20;;;5.35;;
51614;SDS011;37695;52.960;6.188;2023-09-30T03:45:41;13.68;;;5.63;;
51614;SDS011;37695;52.960;6.188;2023-09-30T03:48:06;14.77;;;5.43;;
51614;SDS011;37695;52.960;6.188;2023-09-30T03:50:32;15.85;;;5.45;;
51614;SDS011;37695;52.960;6.188;2023-09-30T03:53:02;17.05;;;5.53;;
51614;SDS011;37695;52.960;6.188;2023-09-30T03:55:28;12.98;;;5.70;;
51614;SDS011;37695;52.960;6.188;2023-09-30T03:57:55;17.17;;;5.85;;
51614;SDS011;37695;52.960;6.188;2023-09-30T04:00:21;13.55;;;5.57;;
51614;SDS011;37695;52.960;6.188;2023-09-30T04:02:46;14.65;;;5.30;;
51614;SDS011;37695;52.960;6.188;2023-09-30T04:05:20;16.50;;;6.28;;
51614;SDS011;37695;52.960;6.188;2023-09-30T04:07:51;12.32;;;5.32;;
51614;SDS011;37695;52.960;6.188;2023-09-30T04:10:17;15.07;;;5.13;;
51614;SDS011;37695;52.960;6.188;2023-09-30T04:12:42;16.08;;;5.55;;
51614;SDS011;37695;52.960;6.188;2023-09-30T04:15:08;12.00;;;5.03;;
51614;SDS011;37695;52.960;6.188;2023-09-30T04:17:37;13.70;;;5.43;;
51614;SDS011;37695;52.960;6.188;2023-09-30T04:20:04;12.73;;;5.18;;
51614;SDS011;37695;52.960;6.188;2023-09-30T04:22:35;13.95;;;5.72;;
51614;SDS011;37695;52.960;6.188;2023-09-30T04:25:02;10.43;;;4.53;;
51614;SDS011;37695;52.960;6.188;2023-09-30T04:27:33;13.45;;;5.53;;
51614;SDS011;37695;52.960;6.188;2023-09-30T04:29:59;16.52;;;5.63;;
51614;SDS011;37695;52.960;6.188;2023-09-30T04:32:25;10.88;;;5.43;;
51614;SDS011;37695;52.960;6.188;2023-09-30T04:34:52;17.95;;;5.18;;
51614;SDS011;37695;52.960;6.188;2023-09-30T04:37:18;16.30;;;5.40;;
51614;SDS011;37695;52.960;6.188;2023-09-30T04:39:44;11.77;;;5.82;;
51614;SDS011;37695;52.960;6.188;2023-09-30T04:42:09;14.82;;;6.00;;
51614;SDS011;37695;52.960;6.188;2023-09-30T04:44:36;14.55;;;5.40;;
51614;SDS011;37695;52.960;6.188;2023-09-30T04:47:03;12.93;;;5.00;;
51614;SDS011;37695;52.960;6.188;2023-09-30T04:49:29;14.98;;;5.82;;
51614;SDS011;37695;52.960;6.188;2023-09-30T04:51:55;9.82;;;4.85;;
51614;SDS011;37695;52.960;6.188;2023-09-30T04:54:21;11.05;;;5.00;;
51614;SDS011;37695;52.960;6.188;2023-09-30T04:56:47;15.23;;;5.65;;
51614;SDS011;37695;52.960;6.188;2023-09-30T04:59:12;14.93;;;5.93;;
51614;SDS011;37695;52.960;6.188;2023-09-30T05:01:39;17.38;;;5.65;;
51614;SDS011;37695;52.960;6.188;2023-09-30T05:04:04;15.60;;;5.53;;
51614;SDS011;37695;52.960;6.188;2023-09-30T05:06:30;15.80;;;5.97;;
51614;SDS011;37695;52.960;6.188;2023-09-30T05:08:57;16.73;;;5.72;;
51614;SDS011;37695;52.960;6.188;2023-09-30T05:11:23;12.98;;;5.38;;
51614;SDS011;37695;52.960;6.188;2023-09-30T05:13:49;12.73;;;6.22;;
51614;SDS011;37695;52.960;6.188;2023-09-30T05:16:16;13.75;;;5.63;;
51614;SDS011;37695;52.960;6.188;2023-09-30T05:18:42;11.75;;;6.22;;
51614;SDS011;37695;52.960;6.188;2023-09-30T05:21:08;17.25;;;6.05;;
51614;SDS011;37695;52.960;6.188;2023-09-30T05:23:33;14.68;;;6.63;;
51614;SDS011;37695;52.960;6.188;2023-09-30T05:25:59;17.90;;;6.57;;
51614;SDS011;37695;52.960;6.188;2023-09-30T05:28:25;11.07;;;5.90;;
51614;SDS011;37695;52.960;6.188;2023-09-30T05:30:52;15.77;;;6.18;;
51614;SDS011;37695;52.960;6.188;2023-09-30T05:33:18;12.63;;;6.25;;
51614;SDS011;37695;52.960;6.188;2023-09-30T05:35:44;14.98;;;6.90;;
51614;SDS011;37695;52.960;6.188;2023-09-30T05:38:09;13.60;;;6.75;;
51614;SDS011;37695;52.960;6.188;2023-09-30T05:40:35;15.57;;;7.13;;
51614;SDS011;37695;52.960;6.188;2023-09-30T05:43:01;12.55;;;6.80;;
51614;SDS011;37695;52.960;6.188;2023-09-30T05:45:28;16.20;;;7.55;;
51614;SDS011;37695;52.960;6.188;2023-09-30T05:47:59;13.88;;;7.00;;
51614;SDS011;37695;52.960;6.188;2023-09-30T05:50:28;17.48;;;6.85;;
51614;SDS011;37695;52.960;6.188;2023-09-30T05:52:54;19.27;;;7.25;;
51614;SDS011;37695;52.960;6.188;2023-09-30T05:55:20;13.85;;;7.40;;
51614;SDS011;37695;52.960;6.188;2023-09-30T05:57:47;17.30;;;7.43;;
51614;SDS011;37695;52.960;6.188;2023-09-30T06:00:14;16.95;;;7.22;;
51614;SDS011;37695;52.960;6.188;2023-09-30T06:02:46;14.32;;;7.70;;
51614;SDS011;37695;52.960;6.188;2023-09-30T06:05:16;12.82;;;7.15;;
51614;SDS011;37695;52.960;6.188;2023-09-30T06:07:43;13.38;;;7.18;;
51614;SDS011;37695;52.960;6.188;2023-09-30T06:10:12;12.73;;;6.80;;
51614;SDS011;37695;52.960;6.188;2023-09-30T06:12:41;19.10;;;7.15;;
51614;SDS011;37695;52.960;6.188;2023-09-30T06:15:07;12.98;;;7.30;;
51614;SDS011;37695;52.960;6.188;2023-09-30T06:17:33;22.65;;;7.75;;
51614;SDS011;37695;52.960;6.188;2023-09-30T06:19:58;12.63;;;7.38;;
51614;SDS011;37695;52.960;6.188;2023-09-30T06:22:32;10.90;;;7.38;;
51614;SDS011;37695;52.960;6.188;2023-09-30T06:24:58;12.20;;;7.85;;
51614;SDS011;37695;52.960;6.188;2023-09-30T06:27:23;14.57;;;7.50;;
51614;SDS011;37695;52.960;6.188;2023-09-30T06:29:49;16.17;;;7.90;;
51614;SDS011;37695;52.960;6.188;2023-09-30T06:32:14;14.07;;;7.53;;
51614;SDS011;37695;52.960;6.188;2023-09-30T06:34:40;18.05;;;7.50;;
51614;SDS011;37695;52.960;6.188;2023-09-30T06:37:06;14.20;;;7.28;;
51614;SDS011;37695;52.960;6.188;2023-09-30T06:39:33;13.85;;;7.20;;
51614;SDS011;37695;52.960;6.188;2023-09-30T06:41:59;15.07;;;7.68;;
51614;SDS011;37695;52.960;6.188;2023-09-30T06:44:24;17.58;;;8.02;;
51614;SDS011;37695;52.960;6.188;2023-09-30T06:46:50;14.50;;;7.57;;
51614;SDS011;37695;52.960;6.188;2023-09-30T06:49:16;14.02;;;7.68;;
51614;SDS011;37695;52.960;6.188;2023-09-30T06:51:42;14.40;;;8.00;;
51614;SDS011;37695;52.960;6.188;2023-09-30T06:54:07;14.13;;;7.88;;
51614;SDS011;37695;52.960;6.188;2023-09-30T06:56:33;13.98;;;7.57;;
51614;SDS011;37695;52.960;6.188;2023-09-30T06:58:58;15.85;;;7.53;;
51614;SDS011;37695;52.960;6.188;2023-09-30T07:01:24;12.40;;;7.60;;
51614;SDS011;37695;52.960;6.188;2023-09-30T07:03:50;19.80;;;7.00;;
51614;SDS011;37695;52.960;6.188;2023-09-30T07:06:25;15.23;;;8.32;;
51614;SDS011;37695;52.960;6.188;2023-09-30T07:08:52;15.23;;;8.05;;
51614;SDS011;37695;52.960;6.188;2023-09-30T07:11:26;18.23;;;8.65;;
51614;SDS011;37695;52.960;6.188;2023-09-30T07:13:53;13.65;;;7.60;;
51614;SDS011;37695;52.960;6.188;2023-09-30T07:16:18;12.27;;;6.88;;
51614;SDS011;37695;52.960;6.188;2023-09-30T07:18:44;13.63;;;8.02;;
51614;SDS011;37695;52.960;6.188;2023-09-30T07:21:09;17.17;;;7.28;;
51614;SDS011;37695;52.960;6.188;2023-09-30T07:23:36;11.07;;;7.57;;
51614;SDS011;37695;52.960;6.188;2023-09-30T07:26:02;12.82;;;7.75;;
51614;SDS011;37695;52.960;6.188;2023-09-30T07:28:28;12.55;;;7.65;;
51614;SDS011;37695;52.960;6.188;2023-09-30T07:30:53;15.43;;;7.65;;
51614;SDS011;37695;52.960;6.188;2023-09-30T07:33:20;14.45;;;7.45;;
51614;SDS011;37695;52.960;6.188;2023-09-30T07:35:45;19.40;;;8.63;;
51614;SDS011;37695;52.960;6.188;2023-09-30T07:38:11;16.75;;;7.97;;
51614;SDS011;37695;52.960;6.188;2023-09-30T07:40:37;13.43;;;7.50;;
51614;SDS011;37695;52.960;6.188;2023-09-30T07:43:02;21.00;;;8.65;;
51614;SDS011;37695;52.960;6.188;2023-09-30T07:45:29;13.77;;;8.35;;
51614;SDS011;37695;52.960;6.188;2023-09-30T07:47:54;16.00;;;8.88;;
51614;SDS011;37695;52.960;6.188;2023-09-30T07:50:20;13.20;;;7.63;;
51614;SDS011;37695;52.960;6.188;2023-09-30T07:52:45;16.08;;;7.93;;
51614;SDS011;37695;52.960;6.188;2023-09-30T07:55:11;16.75;;;8.40;;
51614;SDS011;37695;52.960;6.188;2023-09-30T07:57:38;15.63;;;8.07;;
51614;SDS011;37695;52.960;6.188;2023-09-30T08:00:05;13.45;;;8.00;;
51614;SDS011;37695;52.960;6.188;2023-09-30T08:02:35;15.70;;;7.65;;
51614;SDS011;37695;52.960;6.188;2023-09-30T08:05:01;18.48;;;8.10;;
51614;SDS011;37695;52.960;6.188;2023-09-30T08:07:27;17.90;;;8.95;;
51614;SDS011;37695;52.960;6.188;2023-09-30T08:09:53;18.95;;;9.02;;
51614;SDS011;37695;52.960;6.188;2023-09-30T08:12:18;17.20;;;8.45;;
51614;SDS011;37695;52.960;6.188;2023-09-30T08:14:44;16.75;;;8.23;;
51614;SDS011;37695;52.960;6.188;2023-09-30T08:17:10;22.23;;;9.80;;
51614;SDS011;37695;52.960;6.188;2023-09-30T08:19:36;20.90;;;9.73;;
51614;SDS011;37695;52.960;6.188;2023-09-30T08:22:02;13.52;;;8.43;;
51614;SDS011;37695;52.960;6.188;2023-09-30T08:24:31;19.70;;;8.32;;
51614;SDS011;37695;52.960;6.188;2023-09-30T08:26:56;17.10;;;9.02;;
51614;SDS011;37695;52.960;6.188;2023-09-30T08:29:22;16.08;;;8.68;;
51614;SDS011;37695;52.960;6.188;2023-09-30T08:31:48;13.85;;;8.57;;
51614;SDS011;37695;52.960;6.188;2023-09-30T08:34:15;17.13;;;8.80;;
51614;SDS011;37695;52.960;6.188;2023-09-30T08:36:42;18.10;;;10.10;;
51614;SDS011;37695;52.960;6.188;2023-09-30T08:39:07;17.77;;;8.98;;
51614;SDS011;37695;52.960;6.188;2023-09-30T08:41:35;18.08;;;8.50;;
51614;SDS011;37695;52.960;6.188;2023-09-30T08:44:01;15.38;;;8.43;;
51614;SDS011;37695;52.960;6.188;2023-09-30T08:46:30;25.85;;;10.27;;
51614;SDS011;37695;52.960;6.188;2023-09-30T08:48:57;19.20;;;10.82;;
51614;SDS011;37695;52.960;6.188;2023-09-30T08:51:25;15.55;;;9.75;;
51614;SDS011;37695;52.960;6.188;2023-09-30T08:53:52;15.18;;;8.32;;
51614;SDS011;37695;52.960;6.188;2023-09-30T08:56:19;18.00;;;8.10;;
51614;SDS011;37695;52.960;6.188;2023-09-30T08:58:49;14.73;;;7.45;;
51614;SDS011;37695;52.960;6.188;2023-09-30T09:01:15;16.02;;;8.25;;
51614;SDS011;37695;52.960;6.188;2023-09-30T09:03:41;13.93;;;7.32;;
51614;SDS011;37695;52.960;6.188;2023-09-30T09:06:07;18.65;;;7.97;;
51614;SDS011;37695;52.960;6.188;2023-09-30T09:08:32;14.55;;;7.63;;
51614;SDS011;37695;52.960;6.188;2023-09-30T09:10:59;17.20;;;9.63;;
51614;SDS011;37695;52.960;6.188;2023-09-30T09:13:27;14.93;;;8.18;;
51614;SDS011;37695;52.960;6.188;2023-09-30T09:16:07;18.27;;;7.20;;
51614;SDS011;37695;52.960;6.188;2023-09-30T09:18:34;18.88;;;8.60;;
51614;SDS011;37695;52.960;6.188;2023-09-30T09:21:07;12.48;;;7.38;;
51614;SDS011;37695;52.960;6.188;2023-09-30T09:23:40;13.75;;;7.53;;
51614;SDS011;37695;52.960;6.188;2023-09-30T09:26:06;19.35;;;9.65;;
51614;SDS011;37695;52.960;6.188;2023-09-30T09:28:36;14.93;;;8.55;;
51614;SDS011;37695;52.960;6.188;2023-09-30T09:31:18;17.55;;;7.63;;
51614;SDS011;37695;52.960;6.188;2023-09-30T09:33:46;17.75;;;7.85;;
51614;SDS011;37695;52.960;6.188;2023-09-30T09:36:12;14.20;;;7.72;;
51614;SDS011;37695;52.960;6.188;2023-09-30T09:38:44;15.77;;;8.60;;
51614;SDS011;37695;52.960;6.188;2023-09-30T09:41:11;14.80;;;7.68;;
51614;SDS011;37695;52.960;6.188;2023-09-30T09:43:36;14.70;;;8.45;;
51614;SDS011;37695;52.960;6.188;2023-09-30T09:46:04;16.23;;;8.32;;
51614;SDS011;37695;52.960;6.188;2023-09-30T09:48:33;16.27;;;7.47;;
51614;SDS011;37695;52.960;6.188;2023-09-30T09:51:03;18.02;;;8.07;;
51614;SDS011;37695;52.960;6.188;2023-09-30T09:53:35;13.73;;;7.10;;
51614;SDS011;37695;52.960;6.188;2023-09-30T09:56:02;15.30;;;7.00;;
51614;SDS011;37695;52.960;6.188;2023-09-30T09:58:30;12.98;;;6.32;;
51614;SDS011;37695;52.960;6.188;2023-09-30T10:00:59;16.90;;;8.05;;
51614;SDS011;37695;52.960;6.188;2023-09-30T10:03:26;16.38;;;6.60;;
51614;SDS011;37695;52.960;6.188;2023-09-30T10:05:52;12.05;;;6.18;;
51614;SDS011;37695;52.960;6.188;2023-09-30T10:08:18;18.35;;;6.65;;
51614;SDS011;37695;52.960;6.188;2023-09-30T10:10:46;17.85;;;8.75;;
51614;SDS011;37695;52.960;6.188;2023-09-30T10:13:49;17.98;;;6.35;;
51614;SDS011;37695;52.960;6.188;2023-09-30T10:19:14;13.98;;;6.50;;
51614;SDS011;37695;52.960;6.188;2023-09-30T10:21:40;9.82;;;4.63;;
51614;SDS011;37695;52.960;6.188;2023-09-30T10:24:41;13.80;;;4.68;;
51614;SDS011;37695;52.960;6.188;2023-09-30T10:29:54;11.18;;;4.63;;
51614;SDS011;37695;52.960;6.188;2023-09-30T10:40:47;11.20;;;3.83;;
51614;SDS011;37695;52.960;6.188;2023-09-30T10:43:29;11.55;;;3.97;;
51614;SDS011;37695;52.960;6.188;2023-09-30T10:45:58;12.48;;;3.80;;
51614;SDS011;37695;52.960;6.188;2023-09-30T10:50:54;10.93;;;3.60;;
51614;SDS011;37695;52.960;6.188;2023-09-30T10:53:21;14.38;;;3.95;;
51614;SDS011;37695;52.960;6.188;2023-09-30T10:55:54;8.90;;;3.17;;
51614;SDS011;37695;52.960;6.188;2023-09-30T10:58:21;12.70;;;3.60;;
51614;SDS011;37695;52.960;6.188;2023-09-30T11:00:53;11.52;;;3.63;;
51614;SDS011;37695;52.960;6.188;2023-09-30T11:03:20;8.43;;;3.40;;
51614;SDS011;37695;52.960;6.188;2023-09-30T11:05:50;7.53;;;3.20;;
51614;SDS011;37695;52.960;6.188;2023-09-30T11:08:19;9.30;;;2.78;;
51614;SDS011;37695;52.960;6.188;2023-09-30T11:10:49;10.45;;;2.90;;
51614;SDS011;37695;52.960;6.188;2023-09-30T11:13:16;8.15;;;2.70;;
51614;SDS011;37695;52.960;6.188;2023-09-30T11:15:43;8.95;;;2.95;;
51614;SDS011;37695;52.960;6.188;2023-09-30T11:18:12;7.10;;;2.80;;
51614;SDS011;37695;52.960;6.188;2023-09-30T11:20:39;8.13;;;2.95;;
51614;SDS011;37695;52.960;6.188;2023-09-30T11:23:05;7.18;;;2.67;;
51614;SDS011;37695;52.960;6.188;2023-09-30T11:25:34;7.63;;;3.20;;
51614;SDS011;37695;52.960;6.188;2023-09-30T11:28:15;10.55;;;3.13;;
51614;SDS011;37695;52.960;6.188;2023-09-30T11:30:58;10.23;;;2.97;;
51614;SDS011;37695;52.960;6.188;2023-09-30T11:33:25;10.52;;;3.00;;
51614;SDS011;37695;52.960;6.188;2023-09-30T11:38:30;8.50;;;2.83;;
51614;SDS011;37695;52.960;6.188;2023-09-30T11:40:58;7.28;;;2.42;;
51614;SDS011;37695;52.960;6.188;2023-09-30T11:43:25;7.22;;;2.67;;
51614;SDS011;37695;52.960;6.188;2023-09-30T11:45:50;9.35;;;2.95;;
51614;SDS011;37695;52.960;6.188;2023-09-30T11:48:19;9.15;;;3.10;;
51614;SDS011;37695;52.960;6.188;2023-09-30T11:50:48;10.88;;;3.25;;
51614;SDS011;37695;52.960;6.188;2023-09-30T11:53:16;11.65;;;3.20;;
51614;SDS011;37695;52.960;6.188;2023-09-30T11:55:42;9.85;;;2.90;;
51614;SDS011;37695;52.960;6.188;2023-09-30T11:58:07;10.48;;;2.90;;
51614;SDS011;37695;52.960;6.188;2023-09-30T12:00:34;9.98;;;3.15;;
51614;SDS011;37695;52.960;6.188;2023-09-30T12:03:00;10.68;;;3.10;;
51614;SDS011;37695;52.960;6.188;2023-09-30T12:05:25;7.63;;;3.05;;
51614;SDS011;37695;52.960;6.188;2023-09-30T12:07:51;8.85;;;2.80;;
51614;SDS011;37695;52.960;6.188;2023-09-30T12:10:16;7.03;;;2.80;;
51614;SDS011;37695;52.960;6.188;2023-09-30T12:12:42;11.13;;;3.10;;
51614;SDS011;37695;52.960;6.188;2023-09-30T12:15:08;10.65;;;2.80;;
51614;SDS011;37695;52.960;6.188;2023-09-30T12:17:36;6.60;;;2.85;;
51614;SDS011;37695;52.960;6.188;2023-09-30T12:20:04;11.35;;;3.25;;
51614;SDS011;37695;52.960;6.188;2023-09-30T12:22:31;7.43;;;2.75;;
51614;SDS011;37695;52.960;6.188;2023-09-30T12:24:57;7.97;;;2.92;;
51614;SDS011;37695;52.960;6.188;2023-09-30T12:27:23;10.23;;;3.13;;
51614;SDS011;37695;52.960;6.188;2023-09-30T12:29:49;6.93;;;2.67;;
51614;SDS011;37695;52.960;6.188;2023-09-30T12:32:15;9.82;;;2.88;;
51614;SDS011;37695;52.960;6.188;2023-09-30T12:34:41;9.55;;;3.00;;
51614;SDS011;37695;52.960;6.188;2023-09-30T12:37:06;6.93;;;2.90;;
51614;SDS011;37695;52.960;6.188;2023-09-30T12:39:32;10.02;;;3.30;;
51614;SDS011;37695;52.960;6.188;2023-09-30T12:41:58;10.25;;;3.42;;
51614;SDS011;37695;52.960;6.188;2023-09-30T12:44:23;8.80;;;2.92;;
51614;SDS011;37695;52.960;6.188;2023-09-30T12:46:49;9.82;;;3.10;;
51614;SDS011;37695;52.960;6.188;2023-09-30T12:49:15;8.15;;;3.17;;
51614;SDS011;37695;52.960;6.188;2023-09-30T12:51:40;8.90;;;3.13;;
51614;SDS011;37695;52.960;6.188;2023-09-30T12:54:06;10.98;;;3.20;;
51614;SDS011;37695;52.960;6.188;2023-09-30T12:56:33;7.22;;;2.92;;
51614;SDS011;37695;52.960;6.188;2023-09-30T12:58:58;11.85;;;3.08;;
51614;SDS011;37695;52.960;6.188;2023-09-30T13:01:24;11.93;;;3.42;;
51614;SDS011;37695;52.960;6.188;2023-09-30T13:03:50;11.52;;;3.47;;
51614;SDS011;37695;52.960;6.188;2023-09-30T13:06:16;8.98;;;3.20;;
51614;SDS011;37695;52.960;6.188;2023-09-30T13:08:43;5.93;;;2.70;;
51614;SDS011;37695;52.960;6.188;2023-09-30T13:11:09;10.73;;;3.63;;
51614;SDS011;37695;52.960;6.188;2023-09-30T13:13:36;7.40;;;2.80;;
51614;SDS011;37695;52.960;6.188;2023-09-30T13:16:02;8.43;;;3.53;;
51614;SDS011;37695;52.960;6.188;2023-09-30T13:18:32;9.85;;;3.33;;
51614;SDS011;37695;52.960;6.188;2023-09-30T13:20:58;8.77;;;3.10;;
51614;SDS011;37695;52.960;6.188;2023-09-30T13:23:24;9.30;;;2.83;;
51614;SDS011;37695;52.960;6.188;2023-09-30T13:25:51;9.43;;;3.20;;
51614;SDS011;37695;52.960;6.188;2023-09-30T13:28:17;7.55;;;2.92;;
51614;SDS011;37695;52.960;6.188;2023-09-30T13:30:43;7.55;;;3.15;;
51614;SDS011;37695;52.960;6.188;2023-09-30T13:33:10;9.10;;;2.95;;
51614;SDS011;37695;52.960;6.188;2023-09-30T13:35:36;7.35;;;3.05;;
51614;SDS011;37695;52.960;6.188;2023-09-30T13:38:02;8.70;;;3.25;;
51614;SDS011;37695;52.960;6.188;2023-09-30T13:40:28;10.55;;;2.90;;
51614;SDS011;37695;52.960;6.188;2023-09-30T13:42:54;10.20;;;3.20;;
51614;SDS011;37695;52.960;6.188;2023-09-30T13:45:21;11.73;;;3.50;;
51614;SDS011;37695;52.960;6.188;2023-09-30T13:47:47;8.77;;;3.10;;
51614;SDS011;37695;52.960;6.188;2023-09-30T13:50:12;8.32;;;3.22;;
51614;SDS011;37695;52.960;6.188;2023-09-30T13:52:38;8.25;;;2.90;;
51614;SDS011;37695;52.960;6.188;2023-09-30T13:55:04;8.50;;;3.08;;
51614;SDS011;37695;52.960;6.188;2023-09-30T13:57:30;8.27;;;3.15;;
51614;SDS011;37695;52.960;6.188;2023-09-30T13:59:56;10.18;;;3.30;;
51614;SDS011;37695;52.960;6.188;2023-09-30T14:02:22;8.45;;;3.30;;
51614;SDS011;37695;52.960;6.188;2023-09-30T14:04:48;7.63;;;3.10;;
51614;SDS011;37695;52.960;6.188;2023-09-30T14:07:14;8.77;;;3.25;;
51614;SDS011;37695;52.960;6.188;2023-09-30T14:09:39;10.77;;;3.60;;
51614;SDS011;37695;52.960;6.188;2023-09-30T14:12:05;7.82;;;3.03;;
51614;SDS011;37695;52.960;6.188;2023-09-30T14:14:31;9.95;;;2.97;;
51614;SDS011;37695;52.960;6.188;2023-09-30T14:16:58;9.50;;;3.67;;
51614;SDS011;37695;52.960;6.188;2023-09-30T14:19:23;10.07;;;3.47;;
51614;SDS011;37695;52.960;6.188;2023-09-30T14:21:49;9.50;;;3.17;;
51614;SDS011;37695;52.960;6.188;2023-09-30T14:24:15;10.32;;;3.53;;
51614;SDS011;37695;52.960;6.188;2023-09-30T14:26:40;9.52;;;3.03;;
51614;SDS011;37695;52.960;6.188;2023-09-30T14:29:06;10.77;;;3.00;;
51614;SDS011;37695;52.960;6.188;2023-09-30T14:31:31;9.20;;;2.80;;
51614;SDS011;37695;52.960;6.188;2023-09-30T14:33:57;10.10;;;3.40;;
51614;SDS011;37695;52.960;6.188;2023-09-30T14:36:22;12.85;;;3.15;;
51614;SDS011;37695;52.960;6.188;2023-09-30T14:38:48;11.77;;;3.60;;
51614;SDS011;37695;52.960;6.188;2023-09-30T14:41:14;8.35;;;3.22;;
51614;SDS011;37695;52.960;6.188;2023-09-30T14:43:40;9.90;;;3.05;;
51614;SDS011;37695;52.960;6.188;2023-09-30T14:46:06;9.55;;;3.42;;
51614;SDS011;37695;52.960;6.188;2023-09-30T14:48:33;11.13;;;3.30;;
51614;SDS011;37695;52.960;6.188;2023-09-30T14:50:59;10.00;;;3.25;;
51614;SDS011;37695;52.960;6.188;2023-09-30T14:53:24;9.70;;;3.10;;
51614;SDS011;37695;52.960;6.188;2023-09-30T14:55:50;10.90;;;3.53;;
51614;SDS011;37695;52.960;6.188;2023-09-30T14:58:16;11.10;;;3.47;;